Time;durP1;ratioP1;P1;durP2;ratioP2;P2;SDS_P1;SDS_P2;PMS_P1;PMS_P2;Temp;Humidity;BMP_temperature;BMP_pressure;BME280_temperature;BME280_humidity;BME280_pressure;Samples;Min_cycle;Max_cycle;Signal;HPM_P1;HPM_P2
2021/07/02 00:01:12;;;;;;;2.70;1.33;;;;;;;17.98;38.95;92540.28;5019691;28;20107;-94
2021/07/02 00:08:29;;;;;;;;;;;;;;;;;;;;;
2021/07/02 00:11:54;;;;;;;;;;;;;;;;;;;;;
2021/07/02 00:15:20;;;;;;;;;;;;;;;;;;;;;
2021/07/02 00:18:51;;;;;;;;;;;;;;;;;;;;;
2021/07/02 00:22:26;;;;;;;;;;;;;;;;;;;;;
2021/07/02 00:25:37;;;;;;;;;;;;;;;;;;;;;
2021/07/02 00:28:29;;;;;;;3.55;1.45;;;;;;;18.16;38.20;92544.25;5024643;28;20049;-94
2021/07/02 00:32:01;;;;;;;;;;;;;;;;;;;;;
2021/07/02 00:35:23;;;;;;;3.55;1.80;;;;;;;18.06;38.62;92526.94;5018645;28;20033;-93
2021/07/02 00:39:10;;;;;;;;;;;;;;;;;;;;;
2021/07/02 00:42:27;;;;;;;;;;;;;;;;;;;;;
2021/07/02 00:46:03;;;;;;;;;;;;;;;;;;;;;
2021/07/02 00:48:40;;;;;;;;;;;;;;;18.08;38.99;92535.34;5014442;28;20466;-94
2021/07/02 00:52:09;;;;;;;;;;;;;;;;;;;;;
2021/07/02 00:55:21;;;;;;;3.25;1.50;;;;;;;18.04;39.11;92521.19;5010139;28;20053;-93
2021/07/02 01:02:13;;;;;;;3.83;1.50;;;;;;;17.91;39.25;92521.53;5002047;28;20045;-94
2021/07/02 01:05:15;;;;;;;;;;;;;;;;;;;;;
2021/07/02 01:08:56;;;;;;;2.95;1.40;;;;;;;17.94;39.25;92518.97;5012643;28;20057;-93
2021/07/02 01:16:22;;;;;;;;;;;;;;;;;;;;;
2021/07/02 01:19:26;;;;;;;4.35;1.70;;;;;;;17.96;38.83;92513.34;5011861;28;20046;-94
2021/07/02 01:22:25;;;;;;;;;;;;;;;;;;;;;
2021/07/02 01:25:21;;;;;;;2.47;1.40;;;;;;;17.94;39.02;92507.63;4988930;28;20038;-94
2021/07/02 01:28:14;;;;;;;2.17;1.30;;;;;;;17.93;39.39;92517.44;4979210;28;20510;-93
2021/07/02 01:35:06;;;;;;;;;;;;;;;;;;;;;
2021/07/02 01:41:37;;;;;;;;;;;;;;;;;;;;;
2021/07/02 01:44:37;;;;;;;4.55;1.48;;;;;;;17.84;39.46;92522.84;4981522;28;20141;-93
2021/07/02 01:50:35;;;;;;;;;;;;;;;;;;;;;
2021/07/02 01:53:40;;;;;;;3.35;1.50;;;;;;;17.65;39.41;92509.31;5011527;28;20042;-95
2021/07/02 01:57:02;;;;;;;;;;;;;;;;;;;;;
2021/07/02 02:03:35;;;;;;;4.13;1.35;;;;;;;17.67;39.86;92518.50;4997317;28;20545;-93
2021/07/02 02:06:09;;;;;;;3.53;1.50;;;;;;;17.61;39.62;92503.94;4976430;28;20050;-93
2021/07/02 02:09:36;;;;;;;;;;;;;;;;;;;;;
2021/07/02 02:12:21;;;;;;;;;;;;;;;;;;;;;
2021/07/02 02:18:27;;;;;;;;;;;;;;;;;;;;;
2021/07/02 02:21:36;;;;;;;;;;;;;;;;;;;;;
2021/07/02 02:24:41;;;;;;;2.92;1.30;;;;;;;17.58;40.70;92514.41;5034930;28;20052;-93
2021/07/02 02:27:50;;;;;;;3.42;1.58;;;;;;;17.51;40.77;92517.56;5017115;28;20055;-94
2021/07/02 02:34:15;;;;;;;;;;;;;;;;;;;;;
2021/07/02 02:37:23;;;;;;;3.38;1.60;;;;;;;17.45;40.85;92510.94;5010742;28;20046;-94
2021/07/02 02:40:06;;;;;;;3.42;1.33;;;;;;;17.52;40.96;92508.56;5017360;28;20046;-94
2021/07/02 02:43:12;;;;;;;7.68;1.50;;;;;;;17.51;41.05;92511.53;4998503;28;20045;-92
2021/07/02 02:46:40;;;;;;;4.20;1.58;;;;;;;17.42;41.38;92501.03;4992948;28;20482;-92
2021/07/02 02:49:25;;;;;;;;;;;;;;;;;;;;;
2021/07/02 02:52:17;;;;;;;;;;;;;;;;;;;;;
2021/07/02 02:55:07;;;;;;;;;;;;;;;;;;;;;
2021/07/02 03:01:49;;;;;;;1.52;0.98;;;;;;;17.42;41.55;92511.59;5006759;28;20430;-94
2021/07/02 03:05:00;;;;;;;;;;;;;;;;;;;;;
2021/07/02 03:08:21;;;;;;;0.28;0.20;;;;;;;17.55;41.13;92507.88;5034894;28;20049;-91
2021/07/02 03:11:07;;;;;;;;;;;;;;;;;;;;;
2021/07/02 03:14:29;;;;;;;0.50;0.50;;;;;;;17.66;40.99;92519.59;5034527;28;20143;-95
2021/07/02 03:17:18;;;;;;;0.08;0.08;;;;;;;17.78;40.95;92536.59;5021038;28;20037;-93
2021/07/02 03:20:45;;;;;;;;;;;;;;;;;;;;;
2021/07/02 03:23:53;;;;;;;;;;;;;;;;;;;;;
2021/07/02 03:26:46;;;;;;;0.80;0.75;;;;;;;17.73;41.54;92529.63;5021989;28;20113;-93
2021/07/02 03:29:32;;;;;;;0.10;0.10;;;;;;;17.71;41.59;92531.84;5005234;28;20503;-94
2021/07/02 03:32:34;;;;;;;;;;;;;;;;;;;;;
2021/07/02 03:35:49;;;;;;;0.10;0.10;;;;;;;17.84;40.40;92548.56;5044608;28;20405;-94
2021/07/02 03:38:51;;;;;;;;;;;;;;;;;;;;;
2021/07/02 03:42:03;;;;;;;0.20;0.20;;;;;;;17.75;42.75;92556.56;5056601;28;20055;-96
2021/07/02 03:44:46;;;;;;;0.10;0.10;;;;;;;17.62;43.17;92557.63;5022762;28;20498;-93
2021/07/02 03:48:00;;;;;;;0.20;0.20;;;;;;;17.51;43.95;92553.84;5035545;28;20555;-95
2021/07/02 03:51:08;;;;;;;0.40;0.40;;;;;;;17.41;45.21;92568.28;5053000;28;20056;-94
2021/07/02 03:54:02;;;;;;;;;;;;;;;;;;;;;
2021/07/02 04:16:02;;;;;;;;;;;;;;;;;;;;;
2021/07/02 04:31:46;;;;;;;0.10;0.10;;;;;;;16.76;50.88;92597.69;4881630;29;20084;-94
2021/07/02 04:50:19;;;;;;;0.30;0.30;;;;;;;16.31;53.57;92595.63;5033505;28;20399;-92
2021/07/02 04:53:20;;;;;;;0.10;0.10;;;;;;;16.30;53.44;92594.09;5004493;28;20049;-93
2021/07/02 04:56:11;;;;;;;0.10;0.10;;;;;;;16.38;52.04;92595.13;4986176;28;20046;-93
2021/07/02 04:59:03;;;;;;;0.10;0.10;;;;;;;16.36;52.34;92595.44;4987401;28;20479;-93
2021/07/02 05:02:08;;;;;;;;;;;;;;;;;;;;;
2021/07/02 05:05:06;;;;;;;;;;;;;;;;;;;;;
2021/07/02 05:08:25;;;;;;;;;;;;;;;;;;;;;
2021/07/02 05:11:04;;;;;;;0.20;0.20;;;;;;;16.42;52.21;92610.03;5020383;28;20097;-92
2021/07/02 05:13:58;;;;;;;0.20;0.20;;;;;;;16.39;52.38;92597.47;5033325;28;20116;-92
2021/07/02 05:16:35;;;;;;;0.10;0.10;;;;;;;16.50;52.77;92615.56;5002356;28;20045;-91
2021/07/02 05:19:54;;;;;;;;;;;;;;;;;;;;;
2021/07/02 05:26:00;;;;;;;0.10;0.10;;;;;;;16.61;52.43;92614.09;4945981;28;20070;-91
2021/07/02 05:29:18;;;;;;;;;;;;;;;;;;;;;
2021/07/02 05:31:59;;;;;;;0.10;0.10;;;;;;;16.86;51.64;92625.63;5016986;28;20444;-92
2021/07/02 05:42:48;;;;;;;0.10;0.10;;;;;;;17.20;51.23;92635.22;5011097;22;20086;-77
2021/07/02 05:45:15;;;;;;;0.10;0.10;;;;;;;17.28;51.63;92629.06;5072202;28;20057;-77
2021/07/02 05:47:58;;;;;;;0.20;0.20;;;;;;;17.49;48.51;92633.56;5072467;28;20047;-77
2021/07/02 05:50:24;;;;;;;0.30;0.30;;;;;;;18.97;46.26;92641.78;5071386;28;20052;-76
2021/07/02 05:52:51;;;;;;;0.30;0.30;;;;;;;21.91;37.69;92638.19;5061905;28;20047;-77
2021/07/02 05:55:18;;;;;;;0.30;0.30;;;;;;;23.89;33.19;92640.06;5092320;28;20055;-77
2021/07/02 05:57:44;;;;;;;0.40;0.40;;;;;;;26.18;28.90;92638.16;5092523;28;20472;-77
2021/07/02 06:00:10;;;;;;;0.38;0.38;;;;;;;26.84;28.72;92645.13;5092354;28;20067;-77
2021/07/02 06:02:36;;;;;;;1.13;0.63;;;;;;;28.27;27.42;92644.75;5092892;28;20071;-78
2021/07/02 06:05:03;;;;;;;0.45;0.45;;;;;;;28.58;24.92;92653.06;5074915;28;20044;-78
2021/07/02 06:07:29;;;;;;;0.50;0.50;;;;;;;28.43;24.99;92658.50;5091587;28;20052;-77
2021/07/02 06:09:54;;;;;;;0.50;0.50;;;;;;;29.55;23.70;92658.41;5033716;28;20458;-78
2021/07/02 06:12:20;;;;;;;0.30;0.30;;;;;;;28.94;24.42;92658.19;5037588;28;20060;-78
2021/07/02 06:14:45;;;;;;;0.60;0.60;;;;;;;29.58;23.11;92654.13;5069930;28;20147;-78
2021/07/02 06:17:11;;;;;;;0.40;0.40;;;;;;;29.34;23.65;92662.09;5051901;28;20049;-78
2021/07/02 06:19:37;;;;;;;0.50;0.50;;;;;;;29.70;23.42;92658.25;5052655;28;20052;-78
2021/07/02 06:22:04;;;;;;;0.70;0.70;;;;;;;30.44;23.04;92664.72;5051633;28;20052;-78
2021/07/02 06:24:30;;;;;;;0.57;0.57;;;;;;;29.79;22.70;92667.41;5034350;28;20517;-78
2021/07/02 06:26:56;;;;;;;0.60;0.60;;;;;;;30.59;21.96;92678.00;5032968;28;20045;-78
2021/07/02 06:29:21;;;;;;;0.50;0.50;;;;;;;30.45;22.35;92674.31;5052055;28;20052;-78
2021/07/02 06:31:47;;;;;;;0.40;0.40;;;;;;;30.11;22.14;92676.31;5033073;28;20044;-78
2021/07/02 06:34:13;;;;;;;0.40;0.40;;;;;;;31.05;22.26;92676.53;5051683;28;20478;-78
2021/07/02 06:36:38;;;;;;;0.38;0.38;;;;;;;31.45;21.10;92682.09;5071801;28;20049;-77
2021/07/02 06:39:04;;;;;;;0.20;0.20;;;;;;;31.20;20.94;92680.53;5071162;28;20421;-78
2021/07/02 06:41:30;;;;;;;0.30;0.30;;;;;;;30.64;22.54;92681.00;5047738;28;20092;-78
2021/07/02 06:43:55;;;;;;;0.10;0.10;;;;;;;30.36;23.37;92687.56;5050125;28;20136;-78
2021/07/02 06:46:21;;;;;;;0.10;0.10;;;;;;;29.49;24.81;92681.56;5050856;28;20114;-78
2021/07/02 06:48:46;;;;;;;0.10;0.10;;;;;;;28.22;26.10;92691.69;5054757;28;20052;-80
2021/07/02 06:51:12;;;;;;;0.10;0.10;;;;;;;27.19;27.93;92690.03;5072453;28;20036;-78
2021/07/02 06:53:40;;;;;;;0.32;0.30;;;;;;;26.26;28.69;92688.00;5073475;28;20044;-79
2021/07/02 06:56:07;;;;;;;0.52;0.52;;;;;;;25.56;29.29;92690.00;5071376;28;20045;-78
2021/07/02 06:58:33;;;;;;;0.10;0.10;;;;;;;24.53;30.51;92690.75;5053048;28;20060;-78
2021/07/02 07:00:59;;;;;;;0.35;0.32;;;;;;;24.34;31.97;92693.59;5033650;28;20053;-79
2021/07/02 07:03:25;;;;;;;0.30;0.30;;;;;;;24.30;32.45;92694.34;5068566;28;20029;-77
2021/07/02 07:05:52;;;;;;;0.10;0.10;;;;;;;24.29;31.45;92687.44;5091204;28;20054;-78
2021/07/02 07:08:17;;;;;;;0.20;0.20;;;;;;;23.95;33.43;92699.28;5074627;28;20044;-78
2021/07/02 07:10:43;;;;;;;0.10;0.10;;;;;;;23.44;33.09;92701.31;5073675;28;20043;-78
2021/07/02 07:13:09;;;;;;;0.47;0.47;;;;;;;23.49;33.35;92690.31;5073895;28;20055;-77
2021/07/02 07:15:34;;;;;;;0.20;0.20;;;;;;;23.42;33.43;92692.13;5056405;28;20090;-77
2021/07/02 07:18:01;;;;;;;0.25;0.13;;;;;;;23.48;35.61;92690.66;5075550;28;20040;-78
2021/07/02 07:20:28;;;;;;;0.22;0.20;;;;;;;23.38;35.09;92689.41;5077417;28;20036;-78
2021/07/02 07:22:54;;;;;;;0.00;0.00;;;;;;;22.62;35.76;92690.13;5051224;28;20498;-78
2021/07/02 07:25:21;;;;;;;0.38;0.38;;;;;;;22.81;37.24;92699.22;5075966;28;20055;-77
2021/07/02 07:27:47;;;;;;;0.10;0.10;;;;;;;22.94;36.68;92695.22;5073351;28;20036;-77
2021/07/02 07:30:13;;;;;;;0.10;0.10;;;;;;;23.00;36.03;92688.47;5056536;28;20427;-78
2021/07/02 07:32:39;;;;;;;0.10;0.10;;;;;;;23.26;37.44;92695.72;5057564;28;20059;-81
2021/07/02 07:35:29;;;;;;;0.10;0.10;;;;;;;23.10;37.02;92694.34;5056075;28;20045;-78
2021/07/02 07:37:57;;;;;;;0.10;0.10;;;;;;;23.01;37.56;92692.69;5057112;28;20518;-77
2021/07/02 07:40:25;;;;;;;0.00;0.00;;;;;;;23.39;36.83;92692.84;5037107;28;20041;-77
2021/07/02 07:42:51;;;;;;;0.10;0.10;;;;;;;23.35;35.86;92692.00;5052466;28;20536;-76
2021/07/02 07:45:18;;;;;;;0.22;0.22;;;;;;;23.42;37.01;92697.47;5036766;28;20422;-77
2021/07/02 07:47:43;;;;;;;0.13;0.13;;;;;;;23.05;36.86;92696.16;5068096;28;20056;-76
2021/07/02 07:50:10;;;;;;;0.10;0.10;;;;;;;23.20;37.25;92694.50;5075013;28;20040;-76
2021/07/02 07:52:45;;;;;;;0.13;0.13;;;;;;;23.21;37.39;92692.59;5074730;28;20049;-77
2021/07/02 07:55:11;;;;;;;0.38;0.35;;;;;;;23.28;37.55;92696.16;5067901;28;20116;-76
2021/07/02 07:57:37;;;;;;;0.20;0.20;;;;;;;23.25;36.59;92688.84;5053776;28;20128;-77
2021/07/02 08:00:04;;;;;;;0.10;0.10;;;;;;;22.66;37.87;92698.22;5053570;28;20095;-76
2021/07/02 08:02:30;;;;;;;0.20;0.20;;;;;;;22.31;38.27;92693.03;5052428;28;20529;-76
2021/07/02 08:04:57;;;;;;;0.10;0.10;;;;;;;22.41;39.72;92687.88;5050491;28;20124;-76
2021/07/02 08:07:23;;;;;;;0.63;0.22;;;;;;;21.60;41.79;92688.63;5053489;28;20060;-76
2021/07/02 08:09:49;;;;;;;0.20;0.20;;;;;;;21.75;41.63;92694.25;5053873;28;20041;-76
2021/07/02 08:12:15;;;;;;;0.98;0.43;;;;;;;22.20;38.49;92682.94;5052358;28;20068;-76
2021/07/02 08:14:40;;;;;;;0.10;0.10;;;;;;;22.21;39.49;92684.50;5051930;28;20072;-77
2021/07/02 08:17:06;;;;;;;0.10;0.10;;;;;;;22.37;37.54;92689.72;5035802;28;20091;-77
2021/07/02 08:19:32;;;;;;;0.73;0.50;;;;;;;22.75;38.07;92680.06;5053103;28;20041;-76
2021/07/02 08:21:57;;;;;;;0.00;0.00;;;;;;;22.64;39.85;92677.22;5053145;28;20355;-76
2021/07/02 08:24:23;;;;;;;0.20;0.20;;;;;;;23.24;39.42;92678.53;5052799;28;20065;-77
2021/07/02 08:26:55;;;;;;;0.25;0.20;;;;;;;23.60;37.30;92676.34;5051194;28;20037;-77
2021/07/02 08:29:26;;;;;;;0.10;0.10;;;;;;;23.11;38.65;92682.53;5033346;28;20103;-76
2021/07/02 08:31:52;;;;;;;0.10;0.10;;;;;;;22.57;38.92;92674.44;5016183;28;20156;-77
2021/07/02 08:34:18;;;;;;;0.20;0.20;;;;;;;22.23;39.75;92676.91;5034830;28;20057;-77
2021/07/02 08:36:44;;;;;;;0.10;0.10;;;;;;;22.54;39.98;92685.81;5044771;28;20043;-77
2021/07/02 08:39:10;;;;;;;0.25;0.17;;;;;;;21.77;39.02;92690.13;5045007;28;20640;-78
2021/07/02 08:41:39;;;;;;;0.10;0.10;;;;;;;22.40;38.57;92677.56;5035046;28;20065;-79
2021/07/02 08:44:06;;;;;;;0.20;0.20;;;;;;;22.35;38.37;92675.97;5053068;28;20136;-77
2021/07/02 08:46:36;;;;;;;0.20;0.20;;;;;;;23.06;38.43;92673.69;5039880;28;20605;-77
2021/07/02 08:49:03;;;;;;;0.10;0.10;;;;;;;23.13;38.01;92683.72;5029715;28;20087;-80
2021/07/02 08:51:28;;;;;;;0.10;0.10;;;;;;;23.29;36.93;92680.88;5028710;28;20033;-77
2021/07/02 08:53:54;;;;;;;0.10;0.10;;;;;;;23.73;37.21;92677.63;5037414;28;20064;-77
2021/07/02 08:56:20;;;;;;;0.10;0.10;;;;;;;23.33;36.97;92683.59;5033267;28;20037;-77
2021/07/02 08:58:46;;;;;;;0.30;0.30;;;;;;;23.13;38.18;92683.72;5030918;28;20045;-77
2021/07/02 09:01:42;;;;;;;0.55;0.30;;;;;;;23.60;38.17;92685.13;5035353;28;20095;-77
2021/07/02 09:04:21;;;;;;;0.17;0.17;;;;;;;23.18;37.73;92685.31;5039796;28;20046;-77
2021/07/02 09:07:02;;;;;;;0.32;0.30;;;;;;;23.18;39.08;92685.31;5033549;28;20495;-77
2021/07/02 09:09:49;;;;;;;0.38;0.30;;;;;;;23.03;38.37;92685.09;5042288;28;20041;-78
2021/07/02 09:12:18;;;;;;;0.10;0.10;;;;;;;22.79;38.57;92686.22;5053176;28;20041;-78
2021/07/02 09:15:09;;;;;;;0.10;0.10;;;;;;;22.97;39.46;92685.75;5052505;28;20029;-77
2021/07/02 09:17:56;;;;;;;0.10;0.10;;;;;;;23.27;38.71;92689.25;5035748;28;20052;-78
2021/07/02 09:20:35;;;;;;;0.10;0.10;;;;;;;23.61;39.17;92688.56;5025257;28;20049;-78
2021/07/02 09:23:01;;;;;;;0.30;0.30;;;;;;;23.76;38.60;92681.53;5049281;28;20092;-77
2021/07/02 09:25:36;;;;;;;0.17;0.17;;;;;;;23.32;40.19;92679.38;5039314;28;20507;-76
2021/07/02 09:28:10;;;;;;;0.30;0.22;;;;;;;23.78;39.49;92685.38;5032528;28;20400;-77
2021/07/02 09:30:54;;;;;;;0.20;0.20;;;;;;;23.40;39.65;92689.81;5049138;28;20379;-77
2021/07/02 09:33:22;;;;;;;0.75;0.50;;;;;;;23.53;39.93;92684.22;5030344;28;20046;-75
2021/07/02 09:35:54;;;;;;;0.20;0.20;;;;;;;23.94;37.61;92682.50;5037063;28;20048;-77
2021/07/02 09:38:38;;;;;;;0.52;0.45;;;;;;;23.78;40.69;92680.03;5052776;28;20453;-79
2021/07/02 09:41:06;;;;;;;0.25;0.22;;;;;;;23.53;39.73;92678.91;5051929;28;20070;-78
2021/07/02 09:43:32;;;;;;;0.20;0.20;;;;;;;23.07;41.63;92666.47;5049361;28;20110;-78
2021/07/02 09:46:01;;;;;;;0.22;0.22;;;;;;;23.21;41.32;92673.91;5035347;28;20046;-78
2021/07/02 09:48:29;;;;;;;0.20;0.20;;;;;;;23.45;41.46;92678.03;5034109;28;20049;-79
2021/07/02 09:51:09;;;;;;;0.30;0.30;;;;;;;23.82;41.38;92674.69;5040981;28;20039;-78
2021/07/02 09:53:36;;;;;;;0.20;0.20;;;;;;;23.78;41.41;92669.34;5040045;28;20056;-78
2021/07/02 09:56:17;;;;;;;0.15;0.15;;;;;;;24.34;40.19;92666.84;5046210;28;20049;-78
2021/07/02 09:58:42;;;;;;;0.20;0.20;;;;;;;23.69;39.57;92666.13;5052021;28;20071;-78
2021/07/02 10:01:10;;;;;;;0.25;0.25;;;;;;;23.60;39.45;92662.97;5052953;28;20576;-77
2021/07/02 10:03:37;;;;;;;0.20;0.20;;;;;;;24.16;42.56;92667.47;5043906;28;20040;-78
2021/07/02 10:06:10;;;;;;;0.10;0.10;;;;;;;24.29;39.39;92660.69;5054241;28;20045;-79
2021/07/02 10:08:40;;;;;;;0.43;0.40;;;;;;;24.04;37.99;92654.31;5052549;28;20120;-78
2021/07/02 10:11:08;;;;;;;0.10;0.10;;;;;;;24.25;39.38;92651.09;5051814;28;20036;-77
2021/07/02 10:13:36;;;;;;;0.30;0.20;;;;;;;24.28;38.08;92664.50;5033997;28;20040;-78
2021/07/02 10:16:06;;;;;;;0.47;0.17;;;;;;;24.00;41.08;92653.50;5035860;28;20380;-78
2021/07/02 10:18:37;;;;;;;0.57;0.32;;;;;;;24.44;38.61;92652.81;5016202;28;20115;-77
2021/07/02 10:21:05;;;;;;;0.15;0.15;;;;;;;24.53;39.65;92653.31;5050809;28;20144;-78
2021/07/02 10:23:42;;;;;;;0.40;0.40;;;;;;;24.59;38.73;92648.38;5052459;28;20100;-77
2021/07/02 10:26:08;;;;;;;0.15;0.15;;;;;;;24.87;40.76;92645.16;5048819;28;20064;-76
2021/07/02 10:28:39;;;;;;;0.20;0.20;;;;;;;24.77;38.20;92637.81;5049183;28;20029;-78
2021/07/02 10:31:10;;;;;;;0.22;0.22;;;;;;;24.72;39.88;92642.38;5050094;28;20068;-77
2021/07/02 10:33:43;;;;;;;0.30;0.30;;;;;;;25.10;40.50;92632.28;4999761;28;20755;-77
2021/07/02 10:36:09;;;;;;;0.20;0.20;;;;;;;24.98;41.41;92637.97;5031049;28;20366;-77
2021/07/02 10:38:40;;;;;;;0.15;0.15;;;;;;;24.91;38.50;92637.91;5031270;28;20045;-77
2021/07/02 10:43:34;;;;;;;0.17;0.17;;;;;;;24.79;39.62;92630.16;5065467;28;20102;-76
2021/07/02 10:46:16;;;;;;;0.25;0.22;;;;;;;24.90;38.19;92628.34;5050580;28;20052;-76
2021/07/02 10:49:04;;;;;;;0.15;0.15;;;;;;;23.83;38.96;92638.84;5054856;28;20052;-76
2021/07/02 10:51:29;;;;;;;0.45;0.40;;;;;;;24.31;39.20;92637.00;5046263;28;20050;-76
2021/07/02 10:53:57;;;;;;;0.30;0.30;;;;;;;24.81;36.79;92638.59;5085660;28;20036;-76
2021/07/02 10:56:28;;;;;;;0.15;0.15;;;;;;;24.71;34.87;92637.38;5049944;28;20683;-76
2021/07/02 10:58:53;;;;;;;0.13;0.13;;;;;;;24.82;37.54;92637.47;5067587;28;20102;-77
2021/07/02 11:01:19;;;;;;;0.20;0.20;;;;;;;25.11;39.37;92639.19;5062385;28;20501;-77
2021/07/02 11:03:45;;;;;;;0.20;0.20;;;;;;;24.96;38.82;92640.25;5066892;28;20099;-77
2021/07/02 11:06:40;;;;;;;0.35;0.25;;;;;;;25.16;38.55;92640.75;5071710;28;20045;-76
2021/07/02 11:09:07;;;;;;;0.40;0.30;;;;;;;25.08;36.95;92639.97;5056589;28;20041;-76
2021/07/02 11:12:08;;;;;;;0.30;0.30;;;;;;;24.62;34.71;92635.03;5075203;28;20482;-76
2021/07/02 11:14:54;;;;;;;1.00;0.73;;;;;;;24.84;35.07;92625.25;5052626;28;20071;-76
2021/07/02 11:17:30;;;;;;;0.15;0.15;;;;;;;24.87;36.12;92631.78;5065564;28;20062;-77
2021/07/02 11:20:08;;;;;;;0.13;0.13;;;;;;;24.89;34.94;92632.16;5055120;28;20061;-77
2021/07/02 11:22:41;;;;;;;0.20;0.20;;;;;;;24.70;36.42;92625.13;5019545;28;20045;-81
2021/07/02 11:25:10;;;;;;;0.20;0.20;;;;;;;24.68;37.28;92625.53;5062934;28;20040;-76
2021/07/02 11:27:57;;;;;;;0.20;0.20;;;;;;;25.09;37.21;92619.28;5072965;28;20506;-76
2021/07/02 11:30:35;;;;;;;0.25;0.25;;;;;;;25.14;35.85;92613.56;5071681;28;20048;-76
2021/07/02 11:33:04;;;;;;;0.10;0.10;;;;;;;25.46;35.91;92611.06;5070585;28;20079;-76
2021/07/02 11:35:42;;;;;;;0.30;0.30;;;;;;;25.79;36.56;92622.69;5060074;28;20041;-75
2021/07/02 11:38:13;;;;;;;0.20;0.20;;;;;;;25.82;34.92;92605.84;5073204;28;20044;-76
2021/07/02 11:40:51;;;;;;;0.30;0.30;;;;;;;25.78;35.43;92605.06;5058147;28;20379;-76
2021/07/02 11:43:38;;;;;;;0.20;0.20;;;;;;;25.19;36.42;92620.53;5050460;28;20049;-76
2021/07/02 11:46:13;;;;;;;0.10;0.10;;;;;;;25.06;36.67;92612.00;5073216;28;20047;-76
2021/07/02 11:48:44;;;;;;;0.35;0.35;;;;;;;25.36;34.62;92601.09;5072697;28;20138;-77
2021/07/02 11:51:14;;;;;;;0.20;0.20;;;;;;;25.49;36.31;92601.53;5055156;28;20090;-76
2021/07/02 11:53:42;;;;;;;0.20;0.20;;;;;;;26.19;36.74;92596.78;5054123;28;20051;-77
2021/07/02 11:56:31;;;;;;;0.22;0.22;;;;;;;25.85;33.69;92605.13;5071990;28;20554;-77
2021/07/02 11:59:05;;;;;;;0.20;0.20;;;;;;;25.65;34.90;92607.34;5053560;28;20049;-77
2021/07/02 12:01:44;;;;;;;0.20;0.20;;;;;;;25.93;35.57;92603.22;5060046;28;20040;-76
2021/07/02 12:04:10;;;;;;;0.35;0.20;;;;;;;25.55;34.58;92589.28;5073032;28;20068;-76
2021/07/02 12:06:42;;;;;;;0.85;0.65;;;;;;;24.70;36.93;92599.16;5064805;28;20076;-76
2021/07/02 12:09:13;;;;;;;0.10;0.10;;;;;;;25.47;37.52;92596.56;5065829;28;20076;-76
2021/07/02 12:11:45;;;;;;;0.15;0.15;;;;;;;25.27;37.78;92598.00;5070877;28;20639;-76
2021/07/02 12:14:13;;;;;;;0.38;0.38;;;;;;;25.10;36.27;92600.16;5056498;28;20045;-76
2021/07/02 12:16:40;;;;;;;0.10;0.10;;;;;;;25.19;37.25;92596.41;5035063;28;20214;-76
2021/07/02 12:19:12;;;;;;;0.88;0.88;;;;;;;25.36;34.38;92589.63;5061497;28;20037;-76
2021/07/02 12:21:37;;;;;;;0.20;0.20;;;;;;;25.46;35.27;92595.00;5060434;28;20419;-76
2021/07/02 12:24:06;;;;;;;0.30;0.28;;;;;;;25.86;38.46;92590.53;5045021;28;20289;-76
2021/07/02 12:26:34;;;;;;;0.10;0.10;;;;;;;25.75;36.03;92584.38;5066628;28;20493;-76
2021/07/02 12:29:01;;;;;;;0.55;0.30;;;;;;;25.91;34.35;92587.50;5072468;28;20036;-76
2021/07/02 12:31:31;;;;;;;0.30;0.30;;;;;;;25.85;35.26;92580.97;5062579;28;20557;-76
2021/07/02 12:33:58;;;;;;;0.43;0.40;;;;;;;25.50;36.00;92579.72;5060346;28;20056;-76
2021/07/02 12:36:25;;;;;;;0.52;0.30;;;;;;;25.58;34.75;92590.44;5070846;28;20047;-76
2021/07/02 12:38:58;;;;;;;0.20;0.20;;;;;;;25.87;34.46;92584.09;5071539;28;20477;-76
2021/07/02 12:41:24;;;;;;;0.10;0.10;;;;;;;26.28;34.63;92583.00;5046211;28;20063;-76
2021/07/02 12:43:50;;;;;;;0.20;0.20;;;;;;;26.50;35.79;92578.38;5030980;28;20037;-76
2021/07/02 12:46:16;;;;;;;0.20;0.20;;;;;;;26.63;34.33;92574.19;5014643;28;20536;-76
2021/07/02 12:48:42;;;;;;;0.25;0.22;;;;;;;26.22;34.01;92569.19;5032366;28;20111;-77
2021/07/02 12:51:10;;;;;;;0.20;0.20;;;;;;;26.82;34.80;92570.34;5017630;28;20065;-76
2021/07/02 12:56:20;;;;;;;0.20;0.20;;;;;;;25.94;33.76;92559.97;5021338;28;20041;-76
2021/07/02 12:58:46;;;;;;;0.40;0.40;;;;;;;26.11;33.08;92557.69;5009378;28;20041;-76
2021/07/02 13:01:11;;;;;;;0.45;0.40;;;;;;;25.93;35.32;92563.78;5024566;28;20052;-76
2021/07/02 13:03:37;;;;;;;0.20;0.20;;;;;;;26.11;34.59;92563.78;5003085;28;20052;-76
2021/07/02 13:06:13;;;;;;;0.20;0.20;;;;;;;26.10;33.21;92559.59;5005081;28;20100;-76
2021/07/02 13:08:40;;;;;;;0.25;0.25;;;;;;;26.43;36.47;92556.91;5028976;28;20096;-77
2021/07/02 13:11:20;;;;;;;0.32;0.30;;;;;;;26.94;35.38;92553.81;5032127;28;20052;-77
2021/07/02 13:13:46;;;;;;;0.13;0.13;;;;;;;27.45;33.90;92561.75;5020620;28;20155;-77
2021/07/02 13:16:12;;;;;;;0.20;0.20;;;;;;;27.78;32.29;92561.22;5007195;28;20516;-76
2021/07/02 13:18:52;;;;;;;0.13;0.13;;;;;;;27.48;31.35;92561.00;4994667;28;20049;-76
2021/07/02 13:21:41;;;;;;;0.10;0.10;;;;;;;27.49;33.16;92549.81;4995236;28;20093;-77
2021/07/02 13:24:25;;;;;;;0.47;0.47;;;;;;;27.77;32.45;92548.94;5013209;28;20053;-77
2021/07/02 13:26:56;;;;;;;0.20;0.20;;;;;;;27.49;32.07;92543.69;4996092;28;20407;-77
2021/07/02 13:29:30;;;;;;;0.63;0.60;;;;;;;28.11;33.34;92550.31;4990682;28;20029;-78
2021/07/02 13:31:57;;;;;;;0.30;0.30;;;;;;;27.09;32.27;92554.56;5015545;28;20132;-78
2021/07/02 13:34:39;;;;;;;0.35;0.35;;;;;;;26.54;33.44;92542.34;5015056;28;20041;-77
2021/07/02 13:37:04;;;;;;;0.35;0.35;;;;;;;26.61;33.02;92556.94;5029115;28;20049;-76
2021/07/02 13:39:33;;;;;;;0.52;0.40;;;;;;;27.26;33.72;92554.91;4989543;28;20136;-77
2021/07/02 13:42:00;;;;;;;0.30;0.30;;;;;;;27.45;31.83;92543.72;5016293;28;20411;-76
2021/07/02 13:44:27;;;;;;;0.20;0.20;;;;;;;27.73;33.19;92548.19;5051237;28;20072;-77
2021/07/02 13:47:19;;;;;;;0.82;0.55;;;;;;;26.53;34.48;92545.44;5033500;28;20048;-78
2021/07/02 13:49:45;;;;;;;0.20;0.20;;;;;;;26.33;35.15;92548.50;5030517;28;20046;-76
2021/07/02 13:52:13;;;;;;;0.32;0.32;;;;;;;25.97;34.49;92542.34;5031226;28;20041;-76
2021/07/02 13:54:39;;;;;;;0.47;0.45;;;;;;;26.53;35.53;92562.28;5017463;28;20482;-76
2021/07/02 13:57:06;;;;;;;0.38;0.30;;;;;;;26.57;33.84;92546.97;5032695;28;20147;-76
2021/07/02 13:59:32;;;;;;;0.17;0.17;;;;;;;26.10;34.97;92556.16;5042540;28;20044;-76
2021/07/02 14:01:59;;;;;;;0.38;0.38;;;;;;;26.66;35.08;92551.97;5017569;28;20052;-76
2021/07/02 14:04:25;;;;;;;0.25;0.25;;;;;;;26.57;34.72;92546.97;5034922;28;20128;-76
2021/07/02 14:07:11;;;;;;;0.20;0.20;;;;;;;26.15;37.38;92555.75;5052604;28;20068;-76
2021/07/02 14:09:36;;;;;;;0.30;0.30;;;;;;;27.10;35.32;92560.69;5034802;28;20049;-76
2021/07/02 14:12:02;;;;;;;0.35;0.35;;;;;;;26.81;35.29;92554.63;5053775;28;20033;-76
2021/07/02 14:14:29;;;;;;;0.50;0.40;;;;;;;27.07;34.89;92556.88;5046100;28;20491;-76
2021/07/02 14:16:55;;;;;;;0.38;0.38;;;;;;;27.50;33.48;92561.38;5033080;28;20514;-76
2021/07/02 14:19:21;;;;;;;0.55;0.55;;;;;;;27.67;33.17;92565.88;5044762;28;20049;-75
2021/07/02 14:21:46;;;;;;;0.10;0.10;;;;;;;27.69;33.58;92568.94;5050917;28;20053;-76
2021/07/02 14:24:14;;;;;;;0.20;0.20;;;;;;;27.98;33.62;92574.97;5017949;28;20057;-76
2021/07/02 14:26:40;;;;;;;0.40;0.40;;;;;;;27.05;31.94;92567.22;5034476;28;20072;-76
2021/07/02 14:29:07;;;;;;;0.10;0.10;;;;;;;27.20;31.96;92574.13;5052101;28;20035;-76
2021/07/02 14:31:33;;;;;;;0.43;0.43;;;;;;;27.57;31.95;92567.47;5033530;28;20029;-76
2021/07/02 14:33:59;;;;;;;0.30;0.30;;;;;;;27.37;31.86;92567.16;4998284;28;20057;-76
2021/07/02 14:36:45;;;;;;;0.10;0.10;;;;;;;27.98;33.28;92556.13;5014824;28;20049;-76
2021/07/02 14:39:10;;;;;;;0.40;0.40;;;;;;;28.41;32.54;92558.53;5014913;28;20483;-76
2021/07/02 14:41:36;;;;;;;0.20;0.20;;;;;;;27.34;31.47;92553.75;5003501;28;20139;-76
2021/07/02 14:44:04;;;;;;;0.28;0.28;;;;;;;27.69;32.54;92568.19;5054977;28;20414;-76
2021/07/02 14:46:30;;;;;;;0.30;0.30;;;;;;;27.64;31.12;92557.84;5054801;28;20055;-76
2021/07/02 14:48:55;;;;;;;0.40;0.40;;;;;;;28.15;32.55;92549.13;5052907;28;20409;-76
2021/07/02 14:51:21;;;;;;;0.40;0.32;;;;;;;28.61;31.76;92545.31;5045106;28;20056;-76
2021/07/02 14:53:49;;;;;;;0.47;0.47;;;;;;;28.71;30.75;92548.31;5034704;28;20041;-76
2021/07/02 14:56:14;;;;;;;0.45;0.45;;;;;;;27.91;30.61;92548.09;5066104;28;20064;-76
2021/07/02 14:58:40;;;;;;;1.00;0.28;;;;;;;28.11;31.34;92550.31;5054836;28;20409;-76
2021/07/02 15:01:06;;;;;;;0.20;0.20;;;;;;;27.73;30.86;92547.41;5071539;28;20094;-76
2021/07/02 15:03:31;;;;;;;0.38;0.32;;;;;;;27.30;30.78;92553.00;5072575;28;20051;-76